Time;durP1;ratioP1;P1;durP2;ratioP2;P2;SDS_P1;SDS_P2;PMS_P1;PMS_P2;Temp;Humidity;BMP_temperature;BMP_pressure;BME280_temperature;BME280_humidity;BME280_pressure;Samples;Min_cycle;Max_cycle;Signal;HPM_P1;HPM_P2
2022/06/03 00:00:20;;;;;;;;;;;;;;;12.26;100.00;-25411.44;5059573;28;19920;-76
2022/06/03 00:02:50;;;;;;;;;;;;;;;12.24;100.00;-25410.69;5037508;28;19917;-77
2022/06/03 00:05:25;;;;;;;;;;;;;;;12.28;100.00;-25411.88;5037252;28;19916;-77
2022/06/03 00:08:06;;;;;;;;;;;;;;;12.25;100.00;-25411.13;5037578;28;19956;-77
2022/06/03 00:10:51;;;;;;;;;;;;;;;12.24;100.00;-25410.69;5071740;28;19929;-77
2022/06/03 00:13:37;;;;;;;;;;;;;;;12.24;100.00;-25410.84;5048534;28;19920;-76
2022/06/03 00:16:10;;;;;;;;;;;;;;;12.23;100.00;-25410.41;5077035;28;19923;-75
2022/06/03 00:18:55;;;;;;;;;;;;;;;12.23;100.00;-25410.56;5063772;28;19928;-76
2022/06/03 00:21:36;;;;;;;;;;;;;;;12.24;100.00;-25410.84;5057146;28;19928;-77
2022/06/03 00:24:06;;;;;;;;;;;;;;;12.25;100.00;-25411.13;5057184;28;20014;-76
2022/06/03 00:26:44;;;;;;;;;;;;;;;12.33;100.00;-25413.31;5056390;28;19916;-77
2022/06/03 00:29:25;;;;;;;;;;;;;;;12.36;100.00;-25414.34;5055966;28;20381;-76
2022/06/03 00:32:03;;;;;;;;;;;;;;;12.36;100.00;-25414.22;5055865;28;19924;-77
2022/06/03 00:34:31;;;;;;;;;;;;;;;12.36;100.00;-25414.22;5052294;28;19974;-76
2022/06/03 00:37:15;;;;;;;;;;;;;;;12.37;100.00;-25414.66;5036792;28;19917;-78
2022/06/03 00:39:47;;;;;;;;;;;;;;;12.37;100.00;-25414.66;5036084;28;19928;-76
2022/06/03 00:42:31;;;;;;;;;;;;;;;12.44;100.00;-25416.41;5061429;28;20289;-78
2022/06/03 00:44:56;;;;;;;;;;;;;;;12.47;100.00;-25417.41;5056449;28;19912;-76
2022/06/03 00:47:37;;;;;;;;;;;;;;;12.54;100.00;-25419.47;5055784;28;19928;-76
2022/06/03 00:50:21;;;;;;;;;;;;;;;12.54;100.00;-25419.31;5056446;28;20436;-75
2022/06/03 00:52:59;;;;;;;;;;;;;;;12.55;100.00;-25419.75;5073962;28;20269;-76
2022/06/03 00:55:34;;;;;;;;;;;;;;;12.56;100.00;-25419.91;5075782;28;19963;-76
2022/06/03 00:58:08;;;;;;;;;;;;;;;12.53;100.00;-25419.19;5076172;28;19916;-77
2022/06/03 01:00:37;;;;;;;;;;;;;;;12.53;100.00;-25419.19;5070321;28;19932;-77
2022/06/03 01:03:06;;;;;;;;;;;;;;;12.53;100.00;-25419.19;5072587;28;19932;-77
2022/06/03 01:05:50;;;;;;;;;;;;;;;12.50;100.00;-25418.31;5056366;28;19916;-77
2022/06/03 01:08:24;;;;;;;;;;;;;;;12.47;100.00;-25417.41;5055565;28;19974;-77
2022/06/03 01:10:55;;;;;;;;;;;;;;;12.45;100.00;-25416.84;5056386;28;19930;-77
2022/06/03 01:13:23;;;;;;;;;;;;;;;12.39;100.00;-25415.09;5091460;28;19917;-78
2022/06/03 01:15:54;;;;;;;;;;;;;;;12.40;100.00;-25415.38;5063875;28;19920;-77
2022/06/03 01:18:22;;;;;;;;;;;;;;;12.37;100.00;-25414.50;5056415;28;19920;-78
2022/06/03 01:21:06;;;;;;;;;;;;;;;12.34;100.00;-25413.63;5056046;28;19920;-76
2022/06/03 01:23:44;;;;;;;;;;;;;;;12.34;100.00;-25413.63;5052170;28;19974;-77
2022/06/03 01:26:28;;;;;;;;;;;;;;;12.29;100.00;-25412.16;5053403;28;19924;-78
2022/06/03 01:29:22;;;;;;;;;;;;;;;12.26;100.00;-25411.44;5072334;28;19920;-78
2022/06/03 01:32:10;;;;;;;;;;;;;;;12.22;100.00;-25410.25;5056179;28;19918;-78
2022/06/03 01:34:51;;;;;;;;;;;;;;;12.20;100.00;-25409.81;5051872;28;19928;-77
2022/06/03 01:37:27;;;;;;;;;;;;;;;12.16;100.00;-25408.66;5052692;28;19917;-77
2022/06/03 01:40:11;;;;;;;;;;;;;;;12.16;100.00;-25408.66;5052241;28;20569;-78
2022/06/03 01:43:16;;;;;;;;;;;;;;;12.14;100.00;-25407.91;5051519;28;19955;-77
2022/06/03 01:45:55;;;;;;;;;;;;;;;12.12;100.00;-25407.31;5050145;28;19933;-77
2022/06/03 01:48:30;;;;;;;;;;;;;;;12.13;100.00;-25407.78;5035194;28;19968;-78
2022/06/03 01:50:55;;;;;;;;;;;;;;;12.12;100.00;-25407.31;5031944;28;20333;-77
2022/06/03 01:53:31;;;;;;;;;;;;;;;12.10;100.00;-25406.88;5037704;28;19928;-77
2022/06/03 01:55:59;;;;;;;;;;;;;;;12.07;100.00;-25406.00;5052065;28;19952;-77
2022/06/03 01:58:33;;;;;;;;;;;;;;;12.06;100.00;-25405.72;5052259;28;20012;-77
2022/06/03 02:01:02;;;;;;;;;;;;;;;12.06;100.00;-25405.56;5052090;28;19913;-78
2022/06/03 02:03:42;;;;;;;;;;;;;;;12.04;100.00;-25405.13;5049175;28;19917;-77
2022/06/03 02:06:13;;;;;;;;;;;;;;;12.05;100.00;-25405.28;5031818;28;19921;-77
2022/06/03 02:08:38;;;;;;;;;;;;;;;12.05;100.00;-25405.44;5039031;28;19929;-77
2022/06/03 02:11:22;;;;;;;;;;;;;;;12.05;100.00;-25405.28;5031862;28;19917;-77
2022/06/03 02:14:07;;;;;;;;;;;;;;;12.05;100.00;-25405.28;5050878;28;19921;-78
2022/06/03 02:16:38;;;;;;;;;;;;;;;12.04;100.00;-25405.13;5066198;28;19967;-78
2022/06/03 02:19:06;;;;;;;;;;;;;;;12.03;100.00;-25405.00;5051923;28;19923;-78
2022/06/03 02:21:45;;;;;;;;;;;;;;;12.03;100.00;-25405.00;5051941;28;19923;-78
2022/06/03 02:24:24;;;;;;;;;;;;;;;12.06;100.00;-25405.56;5050888;28;19921;-78
2022/06/03 02:26:56;;;;;;;;;;;;;;;12.04;100.00;-25405.13;5051705;28;19921;-78
2022/06/03 02:32:28;;;;;;;;;;;;;;;12.01;100.00;-25404.25;5052633;28;19923;-77
2022/06/03 02:35:00;;;;;;;;;;;;;;;12.01;100.00;-25404.25;5054220;28;19921;-77
2022/06/03 02:37:35;;;;;;;;;;;;;;;12.00;100.00;-25403.97;5072106;28;19920;-78
2022/06/03 02:40:15;;;;;;;;;;;;;;;11.99;100.00;-25403.81;5042468;28;19921;-77
2022/06/03 02:43:03;;;;;;;;;;;;;;;11.98;100.00;-25403.38;5031828;28;19924;-77
2022/06/03 02:45:29;;;;;;;;;;;;;;;11.98;100.00;-25403.38;5040340;28;19927;-78
2022/06/03 02:48:06;;;;;;;;;;;;;;;11.96;100.00;-25402.78;5049987;28;19920;-78
2022/06/03 02:50:38;;;;;;;;;;;;;;;11.95;100.00;-25402.50;5051551;28;19917;-77
2022/06/03 02:53:08;;;;;;;;;;;;;;;11.94;100.00;-25402.22;5051183;28;19917;-78
2022/06/03 02:55:34;;;;;;;;;;;;;;;11.94;100.00;-25402.22;5047556;28;19949;-77
2022/06/03 02:58:05;;;;;;;;;;;;;;;11.94;100.00;-25402.22;5031822;28;19971;-78
2022/06/03 03:00:31;;;;;;;;;;;;;;;11.93;100.00;-25402.06;5040861;28;20011;-77
2022/06/03 03:03:17;;;;;;;;;;;;;;;11.93;100.00;-25401.91;5067290;28;19971;-77
2022/06/03 03:05:48;;;;;;;;;;;;;;;11.93;100.00;-25401.91;5070021;28;19916;-77
2022/06/03 03:08:32;;;;;;;;;;;;;;;11.88;100.00;-25400.59;5054213;28;20027;-77
2022/06/03 03:11:04;;;;;;;;;;;;;;;11.88;100.00;-25400.44;5052664;28;19916;-77
2022/06/03 03:13:49;;;;;;;;;;;;;;;11.80;100.00;-25398.41;5050622;28;19920;-77
2022/06/03 03:16:34;;;;;;;;;;;;;;;11.82;100.00;-25398.84;5046311;28;20034;-77
2022/06/03 03:19:19;;;;;;;;;;;;;;;11.80;100.00;-25398.41;5051805;28;19917;-77
2022/06/03 03:21:50;;;;;;;;;;;;;;;11.75;100.00;-25396.78;5051009;28;19924;-78
2022/06/03 03:24:25;;;;;;;;;;;;;;;11.71;100.00;-25395.75;5055180;28;19930;-78
2022/06/03 03:26:55;;;;;;;;;;;;;;;11.71;100.00;-25395.75;5073829;28;19963;-77
2022/06/03 03:29:23;;;;;;;;;;;;;;;11.66;100.00;-25394.31;5057703;28;19999;-77
2022/06/03 03:32:08;;;;;;;;;;;;;;;11.62;100.00;-25393.28;5054055;28;19916;-76
2022/06/03 03:34:48;;;;;;;;;;;;;;;11.61;100.00;-25392.97;5059535;28;19921;-75
2022/06/03 03:37:14;;;;;;;;;;;;;;;11.63;100.00;-25393.56;5054379;28;20011;-76
2022/06/03 03:39:54;;;;;;;;;;;;;;;11.60;100.00;-25392.69;5054324;28;20422;-77
2022/06/03 03:42:46;;;;;;;;;;;;;;;11.55;100.00;-25391.22;5053242;28;19923;-76
2022/06/03 03:45:11;;;;;;;;;;;;;;;11.50;100.00;-25389.91;5052887;28;19978;-77
2022/06/03 03:47:51;;;;;;;;;;;;;;;11.45;100.00;-25388.44;5054799;28;19962;-77
2022/06/03 03:50:23;;;;;;;;;;;;;;;11.40;100.00;-25386.97;5053695;28;19916;-76
2022/06/03 03:53:08;;;;;;;;;;;;;;;11.38;100.00;-25386.38;5072925;28;20378;-76
2022/06/03 03:55:42;;;;;;;;;;;;;;;11.40;100.00;-25386.97;5066515;28;19917;-78
2022/06/03 03:58:11;;;;;;;;;;;;;;;11.36;100.00;-25385.66;5054176;28;19925;-77
2022/06/03 04:01:03;;;;;;;;;;;;;;;11.37;100.00;-25386.09;5054033;28;19956;-77
2022/06/03 04:03:50;;;;;;;;;;;;;;;11.34;100.00;-25385.06;5046470;28;19928;-75
2022/06/03 04:06:30;;;;;;;;;;;;;;;11.37;100.00;-25385.94;5054319;28;19920;-77
2022/06/03 04:09:05;;;;;;;;;;;;;;;11.34;100.00;-25385.22;5054697;28;19920;-77
2022/06/03 04:11:36;;;;;;;;;;;;;;;11.31;100.00;-25384.50;5042475;28;19917;-76
2022/06/03 04:14:15;;;;;;;;;;;;;;;11.29;100.00;-25383.75;5035588;28;19921;-77
2022/06/03 04:16:55;;;;;;;;;;;;;;;11.38;100.00;-25386.25;5050159;28;19921;-76
2022/06/03 04:19:26;;;;;;;;;;;;;;;11.82;100.00;-25398.84;5053727;28;19916;-78
2022/06/03 04:21:51;;;;;;;;;;;;;;;12.05;100.00;-25405.44;5038249;28;19959;-79
2022/06/03 04:24:18;;;;;;;;;;;;;;;12.64;100.00;-25422.25;5061820;28;20030;-77
2022/06/03 04:26:46;;;;;;;;;;;;;;;13.67;100.00;-25451.47;5049835;28;19917;-78
2022/06/03 04:29:36;;;;;;;;;;;;;;;14.67;100.00;-25479.88;5033083;28;19921;-78
2022/06/03 04:32:04;;;;;;;;;;;;;;;15.61;100.00;-24517.38;5042247;28;20373;-79
2022/06/03 04:34:48;;;;;;;;;;;;;;;15.83;100.00;-10342.28;5049660;28;19921;-76
2022/06/03 04:37:32;;;;;;;;;;;;;;;15.97;100.00;7544.50;5054173;28;19917;-76
2022/06/03 04:40:16;;;;;;;;;;;;;;;16.44;100.00;23537.25;5061887;28;19992;-79
2022/06/03 04:42:54;;;;;;;;;;;;;;;16.71;100.00;68532.81;5074432;28;19922;-77
2022/06/03 04:45:45;;;;;;;;;;;;;;;17.12;100.00;113083.47;5074789;28;19965;-77
2022/06/03 04:48:25;;;;;;;;;;;;;;;17.87;100.00;147223.34;5062257;28;20019;-77
2022/06/03 04:51:09;;;;;;;;;;;;;;;17.00;100.00;147007.28;5057241;28;19917;-77
2022/06/03 04:53:54;;;;;;;;;;;;;;;17.41;100.00;147109.50;5053611;28;19932;-77
2022/06/03 04:56:45;;;;;;;;;;;;;;;17.41;100.00;147108.25;5053674;28;19921;-77
2022/06/03 04:59:29;;;;;;;;;;;;;;;17.56;100.00;147146.59;5037177;28;19916;-78
2022/06/03 05:01:54;;;;;;;;;;;;;;;18.13;100.00;147287.31;5052553;28;19925;-78
2022/06/03 05:04:45;;;;;;;;;;;;;;;16.50;100.00;146882.03;5033139;28;20008;-78
2022/06/03 05:07:46;;;;;;;;;;;;;;;16.22;100.00;146813.03;5050267;28;19913;-79
2022/06/03 05:10:21;;;;;;;;;;;;;;;16.42;100.00;146861.56;4997545;28;19928;-80
2022/06/03 05:13:08;;;;;;;;;;;;;;;16.07;100.00;146776.00;5044415;28;19927;-80
2022/06/03 05:15:52;;;;;;;;;;;;;;;15.24;100.00;146570.41;5052882;28;19917;-82
2022/06/03 05:18:23;;;;;;;;;;;;;;;14.52;100.00;146390.41;5053142;28;20476;-80
2022/06/03 05:21:11;;;;;;;;;;;;;;;14.35;100.00;146349.56;5044800;28;20008;-80
2022/06/03 05:23:50;;;;;;;;;;;;;;;14.08;100.00;146280.75;5035827;28;19963;-81
2022/06/03 05:26:34;;;;;;;;;;;;;;;13.53;100.00;146144.28;5039762;28;20468;-77
2022/06/03 05:29:05;;;;;;;;;;;;;;;13.33;100.00;146094.53;5066393;28;20383;-77
2022/06/03 05:31:37;;;;;;;;;;;;;;;13.24;100.00;146072.88;5072578;28;19917;-80
2022/06/03 05:34:23;;;;;;;;;;;;;;;13.39;100.00;143938.97;5072735;28;19921;-80
2022/06/03 05:37:07;;;;;;;;;;;;;;;13.55;100.00;118172.03;5072188;28;19923;-80
2022/06/03 05:39:40;;;;;;;;;;;;;;;13.63;100.00;103589.56;5072989;28;19920;-79
2022/06/03 05:42:28;;;;;;;;;;;;;;;13.75;100.00;98189.88;5072238;28;20386;-80
2022/06/03 05:45:03;;;;;;;;;;;;;;;13.79;100.00;93799.06;5070702;28;19917;-78
2022/06/03 05:47:28;;;;;;;;;;;;;;;13.82;100.00;86707.59;5071904;28;20016;-78
2022/06/03 05:50:01;;;;;;;;;;;;;;;14.04;100.00;84377.63;5071527;28;20034;-77
2022/06/03 05:52:42;;;;;;;;;;;;;;;14.29;100.00;86779.00;5072309;28;19923;-79
2022/06/03 05:55:21;;;;;;;;;;;;;;;13.92;100.00;94496.50;5072249;28;20377;-78
2022/06/03 05:57:46;;;;;;;;;;;;;;;13.85;100.00;88738.41;5072123;28;19919;-78
2022/06/03 06:00:21;;;;;;;;;;;;;;;13.90;100.00;87395.31;5072441;28;19916;-79
2022/06/03 06:02:47;;;;;;;;;;;;;;;14.21;100.00;85414.78;5072682;28;19939;-78
2022/06/03 06:05:25;;;;;;;;;;;;;;;14.23;100.00;86094.09;5072406;28;19923;-78
2022/06/03 06:08:03;;;;;;;;;;;;;;;14.17;100.00;93522.53;5071521;28;19979;-79
2022/06/03 06:10:41;;;;;;;;;;;;;;;14.41;100.00;91192.13;5071673;28;19939;-78
2022/06/03 06:13:23;;;;;;;;;;;;;;;14.67;100.00;95634.75;5071543;28;20364;-79
2022/06/03 06:16:09;;;;;;;;;;;;;;;14.76;100.00;111606.13;5071806;28;19959;-79
2022/06/03 06:18:52;;;;;;;;;;;;;;;14.97;100.00;123916.47;5071343;28;20035;-80
2022/06/03 06:21:29;;;;;;;;;;;;;;;14.76;100.00;146449.13;5068814;28;19920;-79
2022/06/03 06:24:15;;;;;;;;;;;;;;;14.69;100.00;146433.81;5072946;28;19920;-77
2022/06/03 06:26:59;;;;;;;;;;;;;;;14.69;100.00;146433.81;5071941;28;19917;-79
2022/06/03 06:29:43;;;;;;;;;;;;;;;14.71;100.00;146438.97;5071982;28;20376;-79
2022/06/03 06:32:23;;;;;;;;;;;;;;;14.89;100.00;142213.94;5072938;28;19916;-80
2022/06/03 06:34:55;;;;;;;;;;;;;;;15.01;100.00;142235.69;5071367;28;19921;-78
2022/06/03 06:37:20;;;;;;;;;;;;;;;15.32;100.00;146338.75;5071057;28;19916;-78
2022/06/03 06:39:53;;;;;;;;;;;;;;;15.12;100.00;146538.44;5071593;28;19928;-81
2022/06/03 06:42:27;;;;;;;;;;;;;;;15.06;100.00;146525.69;5071385;28;19952;-80
2022/06/03 06:45:16;;;;;;;;;;;;;;;15.01;100.00;146512.97;5071400;28;19920;-82
2022/06/03 06:47:50;;;;;;;;;;;;;;;15.12;100.00;146538.44;5071707;28;20007;-77
2022/06/03 06:50:18;;;;;;;;;;;;;;;15.28;100.00;146579.31;5072066;28;19974;-79
2022/06/03 06:52:51;;;;;;;;;;;;;;;15.62;100.00;146663.56;5072922;28;20276;-77
2022/06/03 06:55:23;;;;;;;;;;;;;;;15.86;100.00;146723.59;5075444;28;19916;-78
2022/06/03 06:57:50;;;;;;;;;;;;;;;16.09;100.00;146779.81;5075467;28;20241;-75
2022/06/03 07:00:30;;;;;;;;;;;;;;;16.27;100.00;146824.53;5073932;28;19920;-80
2022/06/03 07:03:15;;;;;;;;;;;;;;;16.21;100.00;146810.47;5072541;28;19916;-77
2022/06/03 07:05:56;;;;;;;;;;;;;;;16.99;100.00;147003.44;5074985;28;19974;-78
2022/06/03 07:08:22;;;;;;;;;;;;;;;17.95;100.00;147242.56;5075152;28;19917;-75
2022/06/03 07:10:56;;;;;;;;;;;;;;;18.43;100.00;147361.53;5074893;28;20365;-77
2022/06/03 07:13:45;;;;;;;;;;;;;;;19.01;100.00;147507.41;5075493;28;19923;-77
2022/06/03 07:19:47;;;;;;;;;;;;;;;18.87;100.00;147471.59;5074877;28;19916;-77
2022/06/03 07:22:01;;;;;;;;;;;;;;;19.33;100.00;147585.53;5075879;28;19962;-78
2022/06/03 07:24:32;;;;;;;;;;;;;;;20.01;100.00;147755.88;5074638;28;19962;-77
2022/06/03 07:27:04;;;;;;;;;;;;;;;20.29;100.00;147823.75;5073730;28;19927;-77
2022/06/03 07:29:34;;;;;;;;;;;;;;;20.05;100.00;147764.84;5074585;28;19952;-78
2022/06/03 07:32:03;;;;;;;;;;;;;;;20.45;100.00;147864.75;5075669;28;19994;-79
2022/06/03 07:34:37;;;;;;;;;;;;;;;20.61;100.00;147905.72;5073803;28;19920;-79
2022/06/03 07:37:09;;;;;;;;;;;;;;;20.58;100.00;147898.03;5074958;28;19917;-77
2022/06/03 07:39:34;;;;;;;;;;;;;;;;;;5074236;28;19923;-79
2022/06/03 07:42:09;;;;;;;;;;;;;;;20.98;100.00;147998.06;5073906;28;19920;-78
2022/06/03 07:44:46;;;;;;;;;;;;;;;20.49;100.00;147874.97;5074281;28;19962;-78
2022/06/03 07:47:13;;;;;;;;;;;;;;;21.36;100.00;148091.59;5074113;28;19916;-75
2022/06/03 07:49:39;;;;;;;;;;;;;;;20.53;100.00;147885.25;5073402;28;19913;-76
2022/06/03 07:52:17;;;;;;;;;;;;;;;20.40;100.00;147853.22;5074421;28;19939;-79
2022/06/03 07:54:51;;;;;;;;;;;;;;;20.33;100.00;147835.28;5074788;28;19923;-77
2022/06/03 07:57:21;;;;;;;;;;;;;;;20.56;100.00;147892.94;5074069;28;19924;-79
2022/06/03 07:59:47;;;;;;;;;;;;;;;21.48;100.00;148122.38;5073592;28;19969;-80
2022/06/03 08:02:13;;;;;;;;;;;;;;;21.90;100.00;148225.03;5072829;28;19916;-76
2022/06/03 08:04:39;;;;;;;;;;;;;;;21.27;100.00;148069.84;5071526;28;20385;-78
2022/06/03 08:12:36;;;;;;;;;;;;;;;22.51;100.00;148377.69;5074192;28;19970;-78
2022/06/03 08:15:28;;;;;;;;;;;;;;;22.34;100.00;148336.66;5073380;28;19917;-77
2022/06/03 08:17:54;;;;;;;;;;;;;;;21.76;100.00;148190.41;5071075;28;19916;-80
2022/06/03 08:20:21;;;;;;;;;;;;;;;21.14;100.00;148037.78;5073892;28;19917;-79
2022/06/03 08:22:47;;;;;;;;;;;;;;;21.55;100.00;148137.81;5073201;28;19970;-77
2022/06/03 08:25:16;;;;;;;;;;;;;;;22.06;100.00;148266.03;5073468;28;20566;-79
2022/06/03 08:27:43;;;;;;;;;;;;;;;22.52;100.00;148381.53;5074584;28;19916;-75
2022/06/03 08:30:11;;;;;;;;;;;;;;;22.67;100.00;148417.44;5072744;28;19947;-76
2022/06/03 08:32:42;;;;;;;;;;;;;;;22.36;100.00;148341.78;5072176;28;20275;-75
2022/06/03 08:35:10;;;;;;;;;;;;;;;22.03;100.00;148259.66;5074774;28;19920;-77
2022/06/03 08:37:39;;;;;;;;;;;;;;;21.96;100.00;148240.41;5072063;28;19957;-77
2022/06/03 08:40:14;;;;;;;;;;;;;;;21.84;100.00;148212.16;5074413;28;20372;-80
2022/06/03 08:42:49;;;;;;;;;;;;;;;22.39;100.00;148348.22;5072387;28;19917;-75
2022/06/03 08:45:32;;;;;;;;;;;;;;;22.43;100.00;148358.44;5073991;28;19938;-80
2022/06/03 08:48:00;;;;;;;;;;;;;;;21.98;100.00;148245.53;5069829;28;19927;-79
2022/06/03 08:50:25;;;;;;;;;;;;;;;21.82;100.00;148207.06;5073047;28;19920;-80
2022/06/03 08:52:54;;;;;;;;;;;;;;;21.68;100.00;148171.16;5070895;28;20288;-77
2022/06/03 08:55:22;;;;;;;;;;;;;;;21.77;100.00;148193.00;5072524;28;19924;-78
2022/06/03 08:57:52;;;;;;;;;;;;;;;21.50;100.00;148126.28;5072320;28;19912;-78
2022/06/03 09:00:18;;;;;;;;;;;;;;;21.80;100.00;148201.94;5071370;28;19916;-78
2022/06/03 09:02:53;;;;;;;;;;;;;;;21.80;100.00;148200.69;5072140;28;19916;-78
2022/06/03 09:05:37;;;;;;;;;;;;;;;21.90;100.00;148225.03;5072395;28;19917;-78
2022/06/03 09:08:16;;;;;;;;;;;;;;;21.54;100.00;148135.28;5073165;28;19999;-78
2022/06/03 09:10:47;;;;;;;;;;;;;;;21.50;100.00;148127.59;5072617;28;20464;-77
2022/06/03 09:13:21;;;;;;;;;;;;;;;21.39;100.00;148099.31;5072699;28;19978;-78
2022/06/03 09:15:47;;;;;;;;;;;;;;;21.75;100.00;148189.13;5075244;28;20004;-78
2022/06/03 09:18:13;;;;;;;;;;;;;;;22.32;100.00;148330.25;5072291;28;19924;-78
2022/06/03 09:20:44;;;;;;;;;;;;;;;22.33;100.00;148332.81;5072113;28;19996;-79
2022/06/03 09:23:14;;;;;;;;;;;;;;;22.21;100.00;148303.25;5072605;28;19916;-78
2022/06/03 09:25:44;;;;;;;;;;;;;;;22.03;100.00;148258.34;5072657;28;19923;-79
2022/06/03 09:28:13;;;;;;;;;;;;;;;21.72;100.00;148181.44;5072819;28;19924;-79
2022/06/03 09:30:39;;;;;;;;;;;;;;;21.61;100.00;148153.19;5072471;28;19916;-80
2022/06/03 09:33:06;;;;;;;;;;;;;;;21.79;100.00;148199.38;5073459;28;19928;-80
2022/06/03 09:35:33;;;;;;;;;;;;;;;21.60;100.00;148151.94;5075584;28;19920;-78
2022/06/03 09:38:00;;;;;;;;;;;;;;;21.85;100.00;148213.50;5075690;28;19923;-78
2022/06/03 09:40:28;;;;;;;;;;;;;;;21.73;100.00;148182.72;5074877;28;19969;-77
2022/06/03 09:42:56;;;;;;;;;;;;;;;21.86;100.00;148217.34;5074786;28;19923;-75
2022/06/03 09:45:23;;;;;;;;;;;;;;;21.47;100.00;148118.53;5075749;28;19954;-77
2022/06/03 09:47:49;;;;;;;;;;;;;;;21.96;100.00;148241.69;5075166;28;19924;-79
2022/06/03 09:50:15;;;;;;;;;;;;;;;21.49;100.00;148123.75;5075713;28;19920;-78
2022/06/03 09:52:43;;;;;;;;;;;;;;;22.18;100.00;148295.56;5075768;28;19916;-80
2022/06/03 09:55:27;;;;;;;;;;;;;;;21.55;100.00;148137.81;5075967;28;19916;-81
2022/06/03 09:57:55;;;;;;;;;;;;;;;21.90;100.00;148226.28;5076228;28;19962;-79
2022/06/03 10:00:22;;;;;;;;;;;;;;;21.71;100.00;148178.88;5076372;28;19922;-79
2022/06/03 10:02:49;;;;;;;;;;;;;;;21.59;100.00;148148.09;5076696;28;19912;-80
2022/06/03 10:05:16;;;;;;;;;;;;;;;21.39;100.00;148098.03;5073406;28;19998;-77
2022/06/03 10:07:41;;;;;;;;;;;;;;;21.58;100.00;148146.81;5074317;28;20095;-75
2022/06/03 10:12:52;;;;;;;;;;;;;;;21.13;100.00;148033.91;5092436;28;20383;-76
2022/06/03 10:18:04;;;;;;;;;;;;;;;21.39;100.00;148099.31;5097528;28;19923;-80
2022/06/03 10:20:29;;;;;;;;;;;;;;;21.44;100.00;148112.16;5082439;28;19923;-75
2022/06/03 10:22:55;;;;;;;;;;;;;;;21.66;100.00;148166.06;5080424;28;20122;-78
2022/06/03 10:25:21;;;;;;;;;;;;;;;21.91;100.00;148227.56;5072748;28;20058;-76
2022/06/03 10:27:46;;;;;;;;;;;;;;;21.91;100.00;148228.88;5074521;28;19942;-76
2022/06/03 10:30:24;;;;;;;;;;;;;;;22.02;100.00;148255.81;5073611;28;19956;-75
2022/06/03 10:32:50;;;;;;;;;;;;;;;21.74;100.00;148186.56;5074607;28;19920;-76
2022/06/03 10:35:16;;;;;;;;;;;;;;;21.82;100.00;148207.06;5075317;28;19959;-78
2022/06/03 10:37:53;;;;;;;;;;;;;;;21.83;100.00;148209.63;5073204;28;19962;-74
2022/06/03 10:40:24;;;;;;;;;;;;;;;22.19;100.00;148299.41;5073972;28;20440;-76
2022/06/03 10:42:54;;;;;;;;;;;;;;;22.44;100.00;148361.03;5069100;28;20390;-74
2022/06/03 10:45:24;;;;;;;;;;;;;;;22.64;100.00;148409.75;5072835;28;19970;-76
2022/06/03 10:47:50;;;;;;;;;;;;;;;22.59;100.00;148398.19;5073154;28;19927;-75
2022/06/03 10:50:38;;;;;;;;;;;;;;;22.23;100.00;148308.38;5074212;28;19924;-81
2022/06/03 11:01:43;;;;;;;;;;;;;;;22.70;100.00;148425.16;5061927;28;20399;-78
2022/06/03 11:04:27;;;;;;;;;;;;;;;22.65;100.00;148412.34;5075579;28;19916;-81
2022/06/03 11:06:53;;;;;;;;;;;;;;;22.29;100.00;148323.75;5073660;28;19924;-75
2022/06/03 11:09:19;;;;;;;;;;;;;;;22.55;100.00;148387.97;5073411;28;20013;-76
2022/06/03 11:11:52;;;;;;;;;;;;;;;22.83;100.00;148457.25;5090448;28;19962;-77
2022/06/03 11:14:25;;;;;;;;;;;;;;;22.78;100.00;148445.72;5073455;28;19916;-76
2022/06/03 11:17:02;;;;;;;;;;;;;;;22.89;100.00;148473.94;5073519;28;19923;-81
2022/06/03 11:19:32;;;;;;;;;;;;;;;22.81;100.00;148453.41;5069767;28;19924;-80
2022/06/03 11:22:10;;;;;;;;;;;;;;;23.06;100.00;148515.03;5074685;28;19988;-80
2022/06/03 11:24:36;;;;;;;;;;;;;;;22.75;100.00;148438.00;5074588;28;19935;-81
2022/06/03 11:27:02;;;;;;;;;;;;;;;22.52;100.00;148380.28;5074281;28;19937;-77
2022/06/03 11:29:31;;;;;;;;;;;;;;;22.63;100.00;148408.50;5074030;28;19916;-80
2022/06/03 11:31:57;;;;;;;;;;;;;;;22.46;100.00;148366.16;5074806;28;19923;-78
2022/06/03 11:34:35;;;;;;;;;;;;;;;23.14;100.00;148534.31;5074321;28;19927;-80
2022/06/03 11:37:09;;;;;;;;;;;;;;;23.07;100.00;148517.56;5075079;28;19916;-78
2022/06/03 11:39:37;;;;;;;;;;;;;;;23.53;100.00;148633.13;5076320;28;19919;-81
2022/06/03 11:42:07;;;;;;;;;;;;;;;23.78;100.00;148694.75;5077849;28;19989;-81
2022/06/03 11:44:52;;;;;;;;;;;;;;;23.63;100.00;148657.50;5061405;28;20014;-79
2022/06/03 11:47:25;;;;;;;;;;;;;;;23.12;100.00;148530.47;5078167;28;19916;-81
2022/06/03 11:49:50;;;;;;;;;;;;;;;23.20;100.00;148549.72;5078457;28;20007;-79
2022/06/03 11:52:16;;;;;;;;;;;;;;;23.27;100.00;148568.97;5079018;28;20023;-80
2022/06/03 11:54:42;;;;;;;;;;;;;;;23.58;100.00;148644.69;5077529;28;19998;-81
2022/06/03 11:57:08;;;;;;;;;;;;;;;23.58;100.00;148645.94;5078227;28;19959;-81
2022/06/03 11:59:52;;;;;;;;;;;;;;;23.21;100.00;148553.56;5078830;28;20010;-78
2022/06/03 12:02:36;;;;;;;;;;;;;;;23.12;100.00;148530.47;5077893;28;19938;-80
2022/06/03 12:05:13;;;;;;;;;;;;;;;23.15;100.00;148536.84;5078206;28;19915;-82
2022/06/03 12:07:42;;;;;;;;;;;;;;;22.77;100.00;148444.41;5078267;28;19920;-80
2022/06/03 12:10:22;;;;;;;;;;;;;;;23.05;100.00;148512.44;5077772;28;19916;-80
2022/06/03 12:13:15;;;;;;;;;;;;;;;23.46;100.00;148615.16;5075163;28;20436;-79
2022/06/03 12:15:44;;;;;;;;;;;;;;;23.97;100.00;148743.63;5065936;28;19962;-81
2022/06/03 12:18:09;;;;;;;;;;;;;;;23.73;100.00;148683.22;5078081;28;19920;-80
2022/06/03 12:20:37;;;;;;;;;;;;;;;23.42;100.00;148604.91;5077549;28;19920;-78
2022/06/03 12:23:12;;;;;;;;;;;;;;;23.64;100.00;148661.38;5078061;28;19919;-80
2022/06/03 12:26:04;;;;;;;;;;;;;;;23.65;100.00;148662.69;5077647;28;19916;-80
2022/06/03 12:28:29;;;;;;;;;;;;;;;23.98;100.00;148746.16;5077402;28;19919;-76
2022/06/03 12:30:55;;;;;;;;;;;;;;;24.22;100.00;148803.97;5077236;28;19917;-81
2022/06/03 12:33:33;;;;;;;;;;;;;;;23.45;100.00;148612.59;5077461;28;19920;-82
2022/06/03 12:36:22;;;;;;;;;;;;;;;23.27;100.00;148567.66;5078117;28;19922;-82
2022/06/03 12:38:52;;;;;;;;;;;;;;;23.27;100.00;148567.66;5065430;28;19939;-82
2022/06/03 12:41:48;;;;;;;;;;;;;;;23.15;100.00;148538.16;5078185;28;19968;-82
2022/06/03 12:44:22;;;;;;;;;;;;;;;23.18;100.00;148544.56;4988547;28;19945;-81
2022/06/03 12:46:48;;;;;;;;;;;;;;;23.24;100.00;148559.97;5076786;28;20444;-79
2022/06/03 12:49:18;;;;;;;;;;;;;;;23.19;100.00;148548.41;5077518;28;19920;-82
2022/06/03 12:52:01;;;;;;;;;;;;;;;23.25;100.00;148563.81;5076743;28;19969;-82
2022/06/03 12:54:28;;;;;;;;;;;;;;;23.77;100.00;148693.50;5076366;28;19920;-77
2022/06/03 12:57:17;;;;;;;;;;;;;;;23.72;100.00;148680.63;5075507;28;19916;-78
2022/06/03 12:59:46;;;;;;;;;;;;;;;23.56;100.00;148639.56;5074829;28;19923;-77
2022/06/03 13:02:12;;;;;;;;;;;;;;;23.98;100.00;148744.91;5076097;28;20002;-79
2022/06/03 13:04:38;;;;;;;;;;;;;;;23.63;100.00;148657.50;5075477;28;19958;-76
2022/06/03 13:07:11;;;;;;;;;;;;;;;23.75;100.00;148687.06;5075490;28;19923;-75
2022/06/03 13:09:50;;;;;;;;;;;;;;;23.75;100.00;148687.06;5075090;28;19916;-79
2022/06/03 13:12:39;;;;;;;;;;;;;;;23.79;100.00;148698.63;5075072;28;19920;-72
2022/06/03 13:15:17;;;;;;;;;;;;;;;23.06;100.00;148515.03;5074502;28;19961;-75
2022/06/03 13:18:07;;;;;;;;;;;;;;;23.19;100.00;148548.41;5075910;28;19916;-75
2022/06/03 13:20:36;;;;;;;;;;;;;;;23.32;100.00;148579.22;5074779;28;20312;-76
2022/06/03 13:23:23;;;;;;;;;;;;;;;23.55;100.00;148638.25;5075316;28;19916;-77
2022/06/03 13:25:54;;;;;;;;;;;;;;;23.73;100.00;148681.94;5074356;28;19961;-76
2022/06/03 13:28:33;;;;;;;;;;;;;;;23.78;100.00;148696.03;5075420;28;19916;-76
2022/06/03 13:31:13;;;;;;;;;;;;;;;23.89;100.00;148721.78;5074848;28;19922;-75